Time;durP1;ratioP1;P1;durP2;ratioP2;P2;SDS_P1;SDS_P2;PMS_P1;PMS_P2;Temp;Humidity;BMP_temperature;BMP_pressure;BME280_temperature;BME280_humidity;BME280_pressure;Samples;Min_cycle;Max_cycle;Signal;HPM_P1;HPM_P2
2022/07/16 00:01:45;;;;;;;7.40;1.50;;;;;;;11.05;90.19;99792.73;104941;1274;60463;-75
2022/07/16 00:04:33;;;;;;;6.50;1.50;;;;;;;11.05;90.34;99798.87;104915;1274;75330;-76
2022/07/16 00:07:21;;;;;;;8.70;1.40;;;;;;;11.03;90.31;99802.17;104929;1274;67910;-75
2022/07/16 00:10:09;;;;;;;9.40;1.60;;;;;;;11.02;90.72;99806.00;104949;1273;71850;-76
2022/07/16 00:12:57;;;;;;;6.30;1.60;;;;;;;11.02;90.56;99809.94;104873;1274;61085;-75
2022/07/16 00:15:45;;;;;;;8.30;1.70;;;;;;;11.02;91.12;99808.14;104914;1271;60420;-77
2022/07/16 00:21:42;;;;;;;10.60;1.90;;;;;;;10.99;90.84;99814.10;105078;1271;68430;-77
2022/07/16 00:24:30;;;;;;;8.20;1.60;;;;;;;10.98;90.86;99809.23;105022;1271;72583;-77
2022/07/16 00:27:18;;;;;;;6.50;1.50;;;;;;;10.95;91.01;99807.83;105343;1271;60489;-77
2022/07/16 00:30:06;;;;;;;11.60;2.30;;;;;;;10.94;91.21;99807.37;107847;1271;59303;-76
2022/07/16 00:32:53;;;;;;;6.30;1.50;;;;;;;10.94;91.49;99805.41;105101;1271;74557;-78
2022/07/16 00:35:42;;;;;;;7.70;1.60;;;;;;;10.93;91.33;99809.59;104887;1271;66597;-76
2022/07/16 00:38:30;;;;;;;8.90;2.00;;;;;;;10.93;91.38;99808.40;105332;1271;74028;-77
2022/07/16 00:41:18;;;;;;;7.00;1.80;;;;;;;10.93;92.25;99805.59;104902;1271;60588;-77
2022/07/16 00:44:08;;;;;;;7.50;1.80;;;;;;;10.91;91.88;99805.86;105248;1271;60425;-77
2022/07/16 00:46:56;;;;;;;7.40;1.50;;;;;;;10.92;91.70;99805.83;104921;1271;74476;-76
2022/07/16 00:49:44;;;;;;;9.40;1.60;;;;;;;10.91;91.88;99799.13;105046;1271;66716;-77
2022/07/16 00:52:36;;;;;;;6.60;1.60;;;;;;;10.90;92.30;99805.57;104948;1271;73124;-78
2022/07/16 00:55:24;;;;;;;8.80;1.70;;;;;;;10.89;92.48;99802.30;105179;1271;60485;-78
2022/07/16 00:58:12;;;;;;;8.80;1.80;;;;;;;10.88;92.51;99799.53;105029;1271;62034;-76
2022/07/16 01:01:00;;;;;;;9.80;1.50;;;;;;;10.87;92.66;99797.86;104968;1271;74126;-76
2022/07/16 01:03:48;;;;;;;8.40;2.10;;;;;;;10.86;92.60;99795.84;104999;1271;68463;-77
2022/07/16 01:06:36;;;;;;;8.30;1.50;;;;;;;10.86;93.11;99794.19;105241;1271;72764;-77
2022/07/16 01:09:26;;;;;;;6.10;1.30;;;;;;;10.88;92.99;99791.92;105006;1271;60555;-77
2022/07/16 01:12:16;;;;;;;6.10;1.50;;;;;;;10.90;93.47;99789.98;104868;1272;60383;-76
2022/07/16 01:15:05;;;;;;;10.10;1.50;;;;;;;10.91;93.36;99791.45;105081;1271;73951;-77
2022/07/16 01:17:55;;;;;;;7.70;1.30;;;;;;;10.90;93.37;99786.20;105238;1271;69360;-77
2022/07/16 01:20:44;;;;;;;8.40;1.70;;;;;;;10.90;93.56;99780.17;104930;1271;72621;-78
2022/07/16 01:23:31;;;;;;;6.70;1.30;;;;;;;10.90;93.60;99781.05;105336;1271;60612;-78
2022/07/16 01:26:20;;;;;;;8.50;1.80;;;;;;;10.91;93.79;99779.77;104964;1271;60527;-79
2022/07/16 01:29:08;;;;;;;7.90;1.30;;;;;;;10.91;93.41;99778.54;105090;1271;73877;-78
2022/07/16 01:31:56;;;;;;;6.20;1.30;;;;;;;10.91;94.09;99776.02;105348;1271;67802;-77
2022/07/16 01:34:45;;;;;;;9.20;1.50;;;;;;;10.93;94.02;99777.00;105292;1271;72806;-75
2022/07/16 01:37:34;;;;;;;7.40;1.40;;;;;;;10.91;94.87;99772.67;105079;1271;60581;-77
2022/07/16 01:40:22;;;;;;;7.40;1.60;;;;;;;10.88;94.58;99772.71;104978;1271;60656;-77
2022/07/16 01:43:23;;;;;;;7.30;1.50;;;;;;;10.87;94.73;99771.59;104980;1271;72773;-76
2022/07/16 01:46:14;;;;;;;7.10;1.30;;;;;;;10.85;94.89;99773.00;105306;1270;68906;-76
2022/07/16 01:49:02;;;;;;;6.80;1.40;;;;;;;10.83;95.06;99773.31;105026;1271;74283;-75
2022/07/16 01:51:50;;;;;;;7.30;1.40;;;;;;;10.82;95.59;99770.04;105023;1271;60446;-76
2022/07/16 01:54:45;;;;;;;10.10;1.60;;;;;;;10.80;95.90;99767.20;105159;1271;60480;-77
2022/07/16 01:57:33;;;;;;;7.60;1.40;;;;;;;10.78;95.35;99762.55;104938;1271;72478;-76
2022/07/16 02:00:21;;;;;;;9.40;1.90;;;;;;;10.75;96.05;99756.83;105160;1271;68558;-77
2022/07/16 02:03:09;;;;;;;7.20;1.80;;;;;;;10.72;95.87;99757.39;104942;1271;74485;-77
2022/07/16 02:05:57;;;;;;;8.70;1.70;;;;;;;10.70;95.60;99754.34;104930;1271;60470;-74
2022/07/16 02:08:46;;;;;;;9.00;1.80;;;;;;;10.70;96.17;99755.44;105263;1271;60845;-77
2022/07/16 02:11:34;;;;;;;6.90;1.60;;;;;;;10.69;95.73;99751.46;105092;1271;72783;-75
2022/07/16 02:14:22;;;;;;;7.20;1.50;;;;;;;10.64;96.79;99744.41;105085;1271;67796;-77
2022/07/16 02:17:10;;;;;;;8.10;2.10;;;;;;;10.68;96.16;99754.00;105112;1271;71555;-78
2022/07/16 02:19:59;;;;;;;8.40;2.00;;;;;;;10.67;96.06;99740.23;105083;1271;60542;-75
2022/07/16 02:22:47;;;;;;;5.60;1.50;;;;;;;10.67;96.53;99739.19;105082;1271;62063;-78
2022/07/16 02:25:35;;;;;;;7.50;1.60;;;;;;;10.66;96.53;99738.73;105295;1271;74967;-75
2022/07/16 02:28:23;;;;;;;9.90;1.80;;;;;;;10.66;96.60;99736.63;105094;1271;68052;-78
2022/07/16 02:31:11;;;;;;;5.40;1.60;;;;;;;10.66;96.45;99738.40;104948;1271;72784;-77
2022/07/16 02:33:59;;;;;;;10.10;1.90;;;;;;;10.64;97.24;99737.42;104992;1271;60502;-78
2022/07/16 02:36:47;;;;;;;7.50;1.40;;;;;;;10.63;96.96;99736.52;105202;1271;60440;-79
2022/07/16 02:39:35;;;;;;;6.90;1.60;;;;;;;10.61;96.92;99737.76;105119;1271;74221;-78
2022/07/16 02:42:23;;;;;;;7.10;1.60;;;;;;;10.59;97.23;99740.38;105240;1271;66788;-79
2022/07/16 02:45:11;;;;;;;8.20;1.70;;;;;;;10.58;98.03;99737.80;105309;1271;72730;-77
2022/07/16 02:47:59;;;;;;;6.90;1.70;;;;;;;10.55;97.85;99738.02;105160;1271;60465;-78
2022/07/16 02:50:48;;;;;;;6.90;1.70;;;;;;;10.54;97.80;99737.95;105077;1271;60560;-78
2022/07/16 02:53:36;;;;;;;7.70;1.50;;;;;;;10.53;97.69;99735.73;105086;1271;75391;-78
2022/07/16 02:56:24;;;;;;;6.80;1.40;;;;;;;10.52;97.66;99737.56;105015;1271;66273;-78
2022/07/16 02:59:14;;;;;;;7.40;1.50;;;;;;;10.50;97.45;99733.30;105092;1271;72492;-78
2022/07/16 03:02:02;;;;;;;8.00;1.70;;;;;;;10.49;97.59;99731.03;105075;1271;60847;-75
2022/07/16 03:04:50;;;;;;;8.00;1.70;;;;;;;10.48;98.04;99737.21;105135;1271;60396;-77
2022/07/16 03:07:39;;;;;;;6.00;1.60;;;;;;;10.45;98.29;99732.52;105022;1271;72559;-78
2022/07/16 03:10:27;;;;;;;7.00;1.70;;;;;;;10.42;97.92;99732.88;105112;1271;69622;-77
2022/07/16 03:13:15;;;;;;;7.50;1.50;;;;;;;10.40;97.89;99734.27;105336;1271;73361;-74
2022/07/16 03:16:03;;;;;;;8.30;2.50;;;;;;;10.39;98.19;99733.45;105680;1271;60510;-79
2022/07/16 03:18:51;;;;;;;6.30;1.70;;;;;;;10.39;98.43;99737.36;104821;1271;60584;-77
2022/07/16 03:21:39;;;;;;;7.20;1.30;;;;;;;10.39;98.00;99735.04;104922;1271;74597;-79
2022/07/16 03:24:28;;;;;;;6.70;1.50;;;;;;;10.41;98.70;99733.35;105165;1271;68970;-78
2022/07/16 03:27:16;;;;;;;7.30;1.60;;;;;;;10.44;99.00;99737.17;105362;1271;72639;-78
2022/07/16 03:30:05;;;;;;;8.20;1.40;;;;;;;10.47;98.72;99735.34;105025;1271;60987;-78
2022/07/16 03:32:53;;;;;;;5.90;1.40;;;;;;;10.50;99.10;99734.94;105170;1271;60941;-78
2022/07/16 03:35:41;;;;;;;5.70;1.30;;;;;;;10.54;98.32;99737.93;105346;1271;74072;-77
2022/07/16 03:41:38;;;;;;;7.40;1.50;;;;;;;10.65;98.51;99735.62;105346;1270;73482;-76
2022/07/16 03:44:26;;;;;;;33.40;3.10;;;;;;;10.71;98.34;99731.91;105065;1271;60671;-77
2022/07/16 03:47:14;;;;;;;7.90;1.60;;;;;;;10.79;98.23;99724.66;105025;1271;61412;-79
2022/07/16 03:50:03;;;;;;;6.40;1.50;;;;;;;10.87;97.38;99725.73;105214;1271;74178;-77
2022/07/16 03:52:51;;;;;;;8.00;1.70;;;;;;;10.97;97.16;99724.09;105058;1271;66506;-78
2022/07/16 03:55:39;;;;;;;6.50;1.40;;;;;;;11.07;96.83;99724.09;105002;1271;74361;-77
2022/07/16 03:58:28;;;;;;;6.80;1.40;;;;;;;11.19;96.21;99720.27;105152;1271;60545;-76
2022/07/16 04:01:16;;;;;;;6.60;1.60;;;;;;;11.30;95.29;99713.81;105091;1271;61989;-77
2022/07/16 04:04:05;;;;;;;6.50;1.20;;;;;;;11.44;94.94;99719.36;105168;1271;74258;-76
2022/07/16 04:06:53;;;;;;;7.10;1.60;;;;;;;11.60;94.07;99717.79;105244;1271;68090;-75
2022/07/16 04:09:41;;;;;;;7.20;1.40;;;;;;;11.77;93.07;99713.48;105127;1271;72562;-77
2022/07/16 04:12:29;;;;;;;8.60;2.00;;;;;;;11.94;92.08;99706.47;105208;1271;60112;-76
2022/07/16 04:15:17;;;;;;;7.50;1.40;;;;;;;12.14;91.52;99710.95;105468;1269;60812;-76
2022/07/16 04:18:06;;;;;;;7.80;2.20;;;;;;;12.40;89.88;99706.42;105180;1271;73959;-78
2022/07/16 04:20:54;;;;;;;5.40;1.00;;;;;;;12.63;88.41;99701.85;105175;1271;68322;-76
2022/07/16 04:23:42;;;;;;;6.70;1.30;;;;;;;12.80;86.50;99700.14;105307;1271;72713;-76
2022/07/16 04:26:30;;;;;;;9.60;3.30;;;;;;;12.96;85.45;99703.08;105459;1271;60566;-76
2022/07/16 04:29:18;;;;;;;9.20;2.90;;;;;;;13.18;85.07;99700.68;105483;1271;60370;-75
2022/07/16 04:32:06;;;;;;;6.00;1.40;;;;;;;13.37;83.46;99696.77;106030;1271;75061;-76
2022/07/16 04:34:55;;;;;;;7.70;1.50;;;;;;;13.51;82.41;99691.04;105471;1271;69352;-76
2022/07/16 04:37:44;;;;;;;4.80;0.90;;;;;;;13.58;80.53;99693.01;105105;1271;71509;-78
2022/07/16 04:40:31;;;;;;;5.70;1.40;;;;;;;13.62;79.44;99692.39;105300;1271;60578;-76
2022/07/16 04:43:19;;;;;;;5.80;1.10;;;;;;;13.66;77.87;99690.73;105316;1271;61961;-79
2022/07/16 04:46:07;;;;;;;4.90;1.10;;;;;;;13.71;77.39;99681.80;105441;1271;75695;-79
2022/07/16 04:48:55;;;;;;;6.80;1.50;;;;;;;13.79;76.50;99681.73;105798;1271;68012;-79
2022/07/16 04:51:43;;;;;;;4.20;0.90;;;;;;;13.78;76.65;99678.73;106213;1271;72758;-77
2022/07/16 04:54:31;;;;;;;5.00;1.10;;;;;;;13.79;76.88;99674.10;105160;1271;61171;-77
2022/07/16 04:57:19;;;;;;;5.10;0.90;;;;;;;13.80;77.06;99668.29;105235;1271;60412;-76
2022/07/16 05:00:08;;;;;;;4.70;1.00;;;;;;;13.79;77.28;99670.27;105166;1271;75458;-77
2022/07/16 05:02:56;;;;;;;5.70;1.10;;;;;;;13.80;77.35;99667.02;105076;1271;66689;-76
2022/07/16 05:05:45;;;;;;;7.00;1.00;;;;;;;13.76;77.56;99664.58;105106;1271;71719;-75
2022/07/16 05:08:33;;;;;;;5.00;1.00;;;;;;;13.72;78.04;99662.85;105067;1271;60597;-76
2022/07/16 05:11:29;;;;;;;5.40;1.00;;;;;;;13.65;78.72;99657.39;105182;1271;60549;-76
2022/07/16 05:14:17;;;;;;;4.70;1.40;;;;;;;13.68;79.12;99651.05;105098;1271;74233;-78
2022/07/16 05:17:08;;;;;;;6.20;1.10;;;;;;;13.78;79.19;99644.93;104976;1272;66728;-76
2022/07/16 05:19:56;;;;;;;7.50;1.10;;;;;;;14.07;78.69;99644.27;105185;1271;72123;-76
2022/07/16 05:22:44;;;;;;;7.00;1.20;;;;;;;15.07;74.96;99636.89;104968;1271;242523;-75
2022/07/16 05:25:32;;;;;;;7.30;1.10;;;;;;;15.26;72.59;99636.83;105177;1271;60445;-75
2022/07/16 05:28:20;;;;;;;6.90;1.00;;;;;;;15.29;72.69;99636.89;105085;1271;73992;-77
2022/07/16 05:31:08;;;;;;;5.80;1.00;;;;;;;15.27;72.08;99638.55;105042;1271;68557;-76
2022/07/16 05:33:56;;;;;;;6.20;1.10;;;;;;;15.19;72.15;99642.09;105076;1271;73175;-75
2022/07/16 05:36:44;;;;;;;6.30;1.00;;;;;;;15.14;72.36;99640.08;105094;1271;60443;-78
2022/07/16 05:39:34;;;;;;;5.20;1.20;;;;;;;15.12;72.16;99645.11;105412;1271;60607;-78
2022/07/16 05:42:22;;;;;;;5.80;1.10;;;;;;;15.08;72.42;99650.70;105167;1271;72478;-77
2022/07/16 05:45:11;;;;;;;4.60;1.10;;;;;;;15.14;72.62;99646.15;105026;1271;68324;-77
2022/07/16 05:47:59;;;;;;;5.60;1.30;;;;;;;15.35;72.44;99644.72;105129;1271;73242;-78
2022/07/16 05:50:48;;;;;;;7.00;1.30;;;;;;;16.20;69.50;99640.08;105158;1271;60615;-77
2022/07/16 05:53:39;;;;;;;6.30;1.40;;;;;;;16.72;67.37;99635.66;105166;1271;60459;-76
2022/07/16 05:56:27;;;;;;;4.60;1.00;;;;;;;17.26;64.93;99633.79;105143;1271;74996;-76
2022/07/16 05:59:15;;;;;;;5.10;1.00;;;;;;;17.26;64.28;99633.42;105373;1271;69104;-76
2022/07/16 06:02:03;;;;;;;5.60;1.30;;;;;;;17.13;64.01;99628.52;105331;1271;73890;-77
2022/07/16 06:04:54;;;;;;;4.70;1.00;;;;;;;16.86;64.09;99631.81;105387;1271;60542;-78
2022/07/16 06:07:42;;;;;;;5.80;1.20;;;;;;;17.22;63.75;99632.63;105045;1271;60335;-78
2022/07/16 06:10:30;;;;;;;4.70;0.90;;;;;;;18.10;61.20;99625.54;104973;1271;74356;-77
2022/07/16 06:13:18;;;;;;;5.90;1.00;;;;;;;18.94;57.36;99610.42;104997;1271;69767;-77
2022/07/16 06:16:07;;;;;;;5.30;1.10;;;;;;;20.26;54.31;99599.46;105092;1271;72911;-77
2022/07/16 06:18:55;;;;;;;5.30;1.00;;;;;;;21.45;48.00;99591.94;105331;1271;60480;-75
2022/07/16 06:21:43;;;;;;;5.70;1.00;;;;;;;22.80;45.73;99587.98;105011;1271;60450;-79
2022/07/16 06:24:31;;;;;;;6.00;1.10;;;;;;;24.17;41.89;99588.59;105477;1271;72567;-78
2022/07/16 06:27:19;;;;;;;5.40;0.90;;;;;;;25.01;39.70;99586.41;105140;1271;69377;-78
2022/07/16 06:30:09;;;;;;;3.60;0.60;;;;;;;25.52;38.21;99581.83;105108;1271;74369;-76
2022/07/16 06:32:56;;;;;;;5.90;1.00;;;;;;;25.51;37.84;99579.88;105162;1271;60468;-77
2022/07/16 06:35:44;;;;;;;5.40;1.00;;;;;;;24.75;38.23;99578.93;105395;1271;60482;-76
2022/07/16 06:38:32;;;;;;;4.90;0.90;;;;;;;23.52;40.42;99584.50;105261;1271;73252;-77
2022/07/16 06:41:21;;;;;;;6.60;0.90;;;;;;;23.86;39.79;99580.64;105195;1271;69455;-76
2022/07/16 06:44:09;;;;;;;4.40;0.80;;;;;;;24.83;39.14;99577.48;105136;1271;74489;-75
2022/07/16 06:46:57;;;;;;;6.10;1.20;;;;;;;25.01;37.94;99575.11;105094;1271;60495;-77
2022/07/16 06:49:45;;;;;;;6.30;0.90;;;;;;;24.60;39.16;99575.85;105235;1271;60468;-77
2022/07/16 06:52:33;;;;;;;4.80;0.90;;;;;;;23.75;40.33;99574.83;105136;1271;72060;-78
2022/07/16 06:55:21;;;;;;;4.70;0.80;;;;;;;22.86;42.10;99572.14;105208;1271;68545;-77
2022/07/16 06:58:09;;;;;;;5.80;0.80;;;;;;;21.95;44.09;99578.86;105181;1271;74480;-77
2022/07/16 07:00:57;;;;;;;4.40;0.70;;;;;;;21.27;45.88;99578.08;105356;1271;60562;-78
2022/07/16 07:03:45;;;;;;;5.30;0.80;;;;;;;20.65;47.80;99578.61;105233;1271;60449;-75
2022/07/16 07:06:34;;;;;;;7.80;1.00;;;;;;;20.21;49.47;99582.19;105448;1271;72830;-76
2022/07/16 07:09:24;;;;;;;5.40;0.90;;;;;;;19.73;50.60;99580.56;104917;1271;68609;-76
2022/07/16 07:12:12;;;;;;;5.60;0.90;;;;;;;19.15;52.07;99573.09;104835;1271;74468;-76
2022/07/16 07:15:00;;;;;;;8.50;1.30;;;;;;;18.59;53.93;99578.82;105094;1271;60571;-78
2022/07/16 07:17:50;;;;;;;6.30;1.10;;;;;;;18.17;55.73;99582.86;105419;1271;60450;-77
2022/07/16 07:20:38;;;;;;;4.90;1.10;;;;;;;17.87;56.97;99582.42;105069;1271;74236;-76
2022/07/16 07:23:27;;;;;;;7.30;1.50;;;;;;;17.65;58.09;99582.98;105082;1271;67778;-74
2022/07/16 07:26:14;;;;;;;6.30;1.40;;;;;;;17.35;59.38;99582.55;105178;1271;72855;-74
2022/07/16 07:29:02;;;;;;;6.70;1.10;;;;;;;17.21;59.84;99580.96;105130;1271;60482;-74
2022/07/16 07:31:50;;;;;;;6.60;1.10;;;;;;;17.03;60.95;99581.67;104752;1271;62001;-66
2022/07/16 07:34:39;;;;;;;6.40;1.10;;;;;;;16.84;61.52;99574.71;104909;1271;72984;-74
2022/07/16 07:37:27;;;;;;;7.70;1.20;;;;;;;16.62;62.42;99568.54;105110;1269;68942;-75
2022/07/16 07:40:15;;;;;;;5.30;1.00;;;;;;;16.35;63.52;99573.41;105334;1271;73353;-75
2022/07/16 07:43:04;;;;;;;4.70;0.90;;;;;;;16.17;64.15;99573.61;105416;1271;60481;-75
2022/07/16 07:45:52;;;;;;;6.60;1.20;;;;;;;16.09;65.00;99576.26;105320;1271;60330;-79
2022/07/16 07:48:40;;;;;;;6.60;1.00;;;;;;;16.00;65.58;99580.13;105210;1271;73770;-76
2022/07/16 07:51:28;;;;;;;8.30;1.40;;;;;;;15.86;67.13;99576.41;105243;1271;69581;-77
2022/07/16 07:54:16;;;;;;;6.70;1.20;;;;;;;15.69;68.72;99577.34;104518;1271;1003155;-76
2022/07/16 07:57:05;;;;;;;7.10;1.00;;;;;;;15.58;70.05;99582.05;105143;1271;60377;-75
2022/07/16 07:59:53;;;;;;;7.00;1.30;;;;;;;15.43;71.17;99583.32;105113;1271;60302;-76
2022/07/16 08:02:46;;;;;;;4.90;1.20;;;;;;;15.25;72.73;99585.50;105203;1271;74526;-77
2022/07/16 08:05:34;;;;;;;7.20;1.50;;;;;;;15.04;74.21;99587.52;105179;1271;68160;-77
2022/07/16 08:08:23;;;;;;;5.90;1.10;;;;;;;14.88;75.40;99592.34;105397;1271;72874;-76
2022/07/16 08:11:11;;;;;;;5.40;1.20;;;;;;;14.74;75.73;99589.92;105035;1271;60457;-76
2022/07/16 08:13:59;;;;;;;6.40;1.10;;;;;;;14.58;77.16;99594.14;105177;1271;61633;-77
2022/07/16 08:17:07;;;;;;;7.90;1.30;;;;;;;14.41;78.02;99593.89;105226;1271;73629;-76
2022/07/16 08:19:56;;;;;;;4.40;0.90;;;;;;;14.29;80.34;99594.02;105193;1271;68164;-76
2022/07/16 08:22:44;;;;;;;6.90;1.40;;;;;;;14.08;81.83;99594.71;105009;1272;74288;-73
2022/07/16 08:25:47;;;;;;;8.30;1.50;;;;;;;13.96;83.27;99598.19;104880;1271;60573;-74
2022/07/16 08:28:40;;;;;;;7.30;1.10;;;;;;;13.87;83.31;99588.39;105004;1272;60518;-74
2022/07/16 08:31:27;;;;;;;5.90;1.20;;;;;;;13.87;83.70;99586.98;105314;1270;74470;-76
2022/07/16 08:34:16;;;;;;;5.50;1.10;;;;;;;13.90;83.67;99578.00;105417;1271;68099;-76
2022/07/16 08:37:11;;;;;;;7.20;1.30;;;;;;;13.92;83.31;99572.53;105065;1271;73051;-75
2022/07/16 08:39:59;;;;;;;7.80;1.30;;;;;;;14.00;83.52;99569.66;105191;1272;60581;-74
2022/07/16 08:42:49;;;;;;;6.60;1.10;;;;;;;14.11;83.46;99572.10;105088;1271;60516;-75
2022/07/16 08:45:38;;;;;;;8.70;1.50;;;;;;;14.22;83.69;99574.23;105162;1272;74597;-76
2022/07/16 08:48:30;;;;;;;6.60;1.20;;;;;;;14.29;83.87;99574.52;104950;1273;67972;-76
2022/07/16 08:51:32;;;;;;;5.70;1.30;;;;;;;14.39;83.75;99576.80;105015;1271;74164;-77
2022/07/16 08:54:21;;;;;;;5.80;1.10;;;;;;;14.48;83.84;99574.66;105302;1271;60507;-77
2022/07/16 08:57:09;;;;;;;5.60;1.40;;;;;;;14.54;84.29;99576.23;105019;1271;60552;-77
2022/07/16 08:59:57;;;;;;;9.30;1.10;;;;;;;14.55;84.22;99567.89;104956;1272;74252;-76
2022/07/16 09:02:46;;;;;;;5.70;1.20;;;;;;;14.65;83.89;99566.52;105105;1272;68455;-77
2022/07/16 09:05:35;;;;;;;6.10;1.70;;;;;;;14.85;84.21;99559.96;105039;1272;71745;-77
2022/07/16 09:08:23;;;;;;;5.30;1.40;;;;;;;15.03;81.78;99556.21;105349;1273;60432;-76
2022/07/16 09:11:25;;;;;;;6.40;1.40;;;;;;;15.19;78.88;99549.46;105583;1271;60519;-76
2022/07/16 09:14:16;;;;;;;5.10;1.10;;;;;;;15.44;77.56;99546.91;105214;1271;75088;-77
2022/07/16 09:17:04;;;;;;;5.30;1.10;;;;;;;15.50;74.02;99548.34;104988;1272;68291;-76
2022/07/16 09:19:52;;;;;;;6.80;1.20;;;;;;;15.52;72.80;99546.95;105271;1271;74515;-75
2022/07/16 09:22:40;;;;;;;5.60;0.90;;;;;;;15.56;73.38;99549.41;105182;1271;60500;-74
2022/07/16 09:25:29;;;;;;;5.90;1.00;;;;;;;15.52;73.74;99546.77;104909;1271;60944;-76
2022/07/16 09:28:17;;;;;;;7.10;1.20;;;;;;;15.39;74.74;99550.80;105082;1274;74101;-75
2022/07/16 09:31:05;;;;;;;4.80;1.20;;;;;;;15.17;75.95;99552.72;104857;1271;68560;-78
2022/07/16 09:34:06;;;;;;;6.50;1.40;;;;;;;15.02;76.83;99548.58;105146;1272;72858;-76
2022/07/16 09:37:06;;;;;;;6.70;1.30;;;;;;;14.77;77.89;99537.80;105089;1272;60812;-77
2022/07/16 09:39:56;;;;;;;5.70;1.20;;;;;;;14.46;77.09;99543.58;104962;1271;60472;-77
2022/07/16 09:42:44;;;;;;;5.10;1.00;;;;;;;14.30;79.05;99550.27;104929;1272;73173;-76
2022/07/16 09:45:33;;;;;;;5.30;1.00;;;;;;;14.22;78.59;99551.75;105350;1271;68527;-78
2022/07/16 09:48:28;;;;;;;5.30;1.10;;;;;;;14.21;78.57;99549.33;105243;1272;73273;-78
2022/07/16 09:51:21;;;;;;;6.00;1.00;;;;;;;14.17;79.30;99538.14;105132;1274;60609;-77
2022/07/16 09:54:26;;;;;;;6.40;1.20;;;;;;;14.19;78.92;99549.02;105216;1271;60479;-78
2022/07/16 09:57:18;;;;;;;5.30;1.20;;;;;;;14.14;78.16;99546.27;105382;1271;73907;-77
2022/07/16 10:00:09;;;;;;;6.40;1.20;;;;;;;14.11;78.08;99544.10;105182;1271;67898;-78
2022/07/16 10:03:01;;;;;;;5.00;1.00;;;;;;;14.11;78.56;99546.10;105370;1272;71954;-78
2022/07/16 10:05:49;;;;;;;4.80;1.00;;;;;;;13.94;79.31;99540.15;105518;1270;60525;-77
2022/07/16 10:08:38;;;;;;;5.70;1.10;;;;;;;13.81;79.80;99538.36;105003;1271;62089;-78
2022/07/16 10:11:27;;;;;;;5.40;1.10;;;;;;;13.74;80.81;99544.44;105109;1271;73772;-77
2022/07/16 10:14:15;;;;;;;8.10;1.30;;;;;;;13.68;82.06;99541.30;105028;1274;68403;-75
2022/07/16 10:17:19;;;;;;;9.10;1.30;;;;;;;13.68;81.23;99536.30;105225;1273;74641;-75
2022/07/16 10:20:12;;;;;;;7.40;1.30;;;;;;;13.58;80.11;99536.11;105312;1271;60465;-74
2022/07/16 10:23:06;;;;;;;5.90;1.00;;;;;;;13.47;80.35;99536.02;105024;1271;61494;-75
2022/07/16 10:26:18;;;;;;;8.10;1.40;;;;;;;13.34;80.80;99530.88;105247;1273;74699;-74
2022/07/16 10:29:06;;;;;;;10.40;1.60;;;;;;;13.18;80.65;99527.19;104871;1274;68655;-75
2022/07/16 10:35:27;;;;;;;10.00;1.80;;;;;;;13.01;82.57;99528.15;105324;1271;61146;-75
2022/07/16 10:38:21;;;;;;;10.90;1.70;;;;;;;12.90;83.88;99528.45;104889;1271;60511;-74
2022/07/16 10:41:15;;;;;;;14.50;2.50;;;;;;;12.83;84.79;99531.13;105393;1270;73818;-76
2022/07/16 10:44:12;;;;;;;13.10;2.50;;;;;;;12.82;85.34;99531.70;105340;1271;69697;-75
2022/07/16 10:47:03;;;;;;;9.90;2.20;;;;;;;12.89;85.68;99525.77;105116;1273;72698;-76
2022/07/16 10:50:19;;;;;;;8.60;1.70;;;;;;;13.00;86.03;99522.92;105224;1271;59637;-78
2022/07/16 10:53:07;;;;;;;6.20;1.60;;;;;;;13.12;85.79;99519.24;105188;1271;60489;-78
2022/07/16 10:55:55;;;;;;;7.00;1.50;;;;;;;13.20;85.80;99522.17;105291;1271;73079;-77
2022/07/16 10:58:45;;;;;;;6.00;1.50;;;;;;;13.31;85.62;99516.01;105461;1272;67805;-78
2022/07/16 11:01:35;;;;;;;6.60;1.70;;;;;;;13.44;86.07;99511.52;105086;1272;72662;-77
2022/07/16 11:04:31;;;;;;;5.90;1.60;;;;;;;13.60;85.91;99498.91;105095;1271;60566;-77
2022/07/16 11:07:22;;;;;;;5.50;1.40;;;;;;;13.79;84.79;99501.08;105146;1271;61988;-77
2022/07/16 11:10:11;;;;;;;5.60;1.40;;;;;;;13.85;84.30;99502.33;105413;1271;72792;-77
2022/07/16 11:13:09;;;;;;;6.40;1.40;;;;;;;13.85;84.29;99504.48;105094;1273;68034;-77
2022/07/16 11:16:08;;;;;;;6.70;1.50;;;;;;;13.78;84.97;99497.42;105572;1271;74393;-75
2022/07/16 11:19:04;;;;;;;5.90;1.20;;;;;;;13.79;85.39;99488.10;105638;1271;60464;-76
2022/07/16 11:22:01;;;;;;;5.90;1.50;;;;;;;13.79;85.52;99482.05;105265;1271;60457;-75
2022/07/16 11:24:53;;;;;;;6.40;1.90;;;;;;;13.77;86.05;99486.84;105107;1274;74672;-78
2022/07/16 11:27:41;;;;;;;5.90;1.50;;;;;;;13.73;86.91;99480.84;105127;1271;67812;-76
2022/07/16 11:30:31;;;;;;;7.30;1.50;;;;;;;13.69;86.89;99476.79;105124;1271;72875;-76
2022/07/16 11:33:35;;;;;;;7.40;1.50;;;;;;;13.63;86.56;99469.71;104888;1271;60508;-74
2022/07/16 11:36:28;;;;;;;7.70;1.40;;;;;;;13.57;86.61;99463.89;105017;1271;60565;-75
2022/07/16 11:39:19;;;;;;;5.40;1.50;;;;;;;13.50;86.19;99460.14;105119;1271;72897;-76
2022/07/16 11:42:07;;;;;;;6.00;1.50;;;;;;;13.49;86.40;99457.96;105474;1271;68047;-77
2022/07/16 11:44:55;;;;;;;6.70;1.50;;;;;;;13.51;87.45;99458.23;105172;1271;74666;-76
2022/07/16 11:47:43;;;;;;;5.10;1.40;;;;;;;13.57;87.96;99459.49;105065;1274;60653;-75
2022/07/16 11:50:31;;;;;;;6.30;1.20;;;;;;;13.65;87.52;99455.77;105152;1271;61059;-77
2022/07/16 11:53:32;;;;;;;6.30;1.40;;;;;;;13.75;87.57;99450.83;105234;1271;72697;-78
2022/07/16 11:56:41;;;;;;;6.60;1.30;;;;;;;13.91;87.23;99443.52;105443;1271;67892;-76
2022/07/16 11:59:32;;;;;;;4.80;1.00;;;;;;;13.98;84.32;99452.67;105165;1271;73843;-75
2022/07/16 12:02:42;;;;;;;4.60;1.00;;;;;;;13.95;83.34;99452.08;105107;1271;60373;-76
2022/07/16 12:05:31;;;;;;;5.70;1.40;;;;;;;14.06;80.88;99459.74;105353;1271;60533;-75
2022/07/16 12:08:20;;;;;;;6.00;1.20;;;;;;;14.28;81.87;99465.65;105060;1272;74067;-76
2022/07/16 12:11:19;;;;;;;5.20;1.20;;;;;;;14.66;82.12;99467.81;105340;1271;69455;-75
2022/07/16 12:14:08;;;;;;;4.60;1.30;;;;;;;15.02;81.15;99465.58;105108;1271;72841;-75
2022/07/16 12:16:56;;;;;;;5.50;1.50;;;;;;;15.28;78.50;99467.56;105269;1272;60508;-76
2022/07/16 12:20:09;;;;;;;4.70;1.20;;;;;;;15.51;78.24;99466.30;105033;1273;62221;-77
2022/07/16 12:23:14;;;;;;;5.40;1.10;;;;;;;15.61;77.70;99472.84;105044;1271;74126;-76
2022/07/16 12:26:06;;;;;;;4.60;1.10;;;;;;;15.61;77.37;99471.27;104904;1271;68617;-75
2022/07/16 12:28:54;;;;;;;5.70;1.40;;;;;;;15.55;76.10;99477.10;105012;1273;72615;-75
2022/07/16 12:31:42;;;;;;;5.20;1.30;;;;;;;15.45;76.75;99480.33;105090;1271;60840;-76
2022/07/16 12:34:43;;;;;;;4.80;1.30;;;;;;;15.36;78.18;99477.30;105181;1271;60399;-75
2022/07/16 12:37:40;;;;;;;5.10;1.40;;;;;;;15.26;78.06;99472.27;105046;1271;75610;-75
2022/07/16 12:40:31;;;;;;;6.20;1.40;;;;;;;15.24;78.54;99478.02;105423;1271;65782;-76
2022/07/16 12:43:19;;;;;;;5.30;1.30;;;;;;;15.20;78.92;99477.80;104882;1271;71510;-76
2022/07/16 12:46:10;;;;;;;8.10;1.70;;;;;;;15.07;79.04;99475.05;105132;1271;60553;-75
2022/07/16 12:49:09;;;;;;;5.90;1.40;;;;;;;15.01;79.83;99473.74;105269;1271;60338;-76
2022/07/16 12:52:00;;;;;;;6.00;1.60;;;;;;;15.04;80.86;99473.18;105175;1271;74112;-76
2022/07/16 13:01:01;;;;;;;6.60;1.30;;;;;;;15.65;80.51;99480.24;105230;1271;60455;-74
2022/07/16 13:03:51;;;;;;;5.40;1.00;;;;;;;15.76;78.56;99478.55;105102;1271;60636;-75
2022/07/16 13:06:40;;;;;;;5.50;1.10;;;;;;;15.79;76.41;99484.16;105952;1271;74317;-77
2022/07/16 13:09:28;;;;;;;5.20;1.20;;;;;;;15.56;75.03;99481.45;105675;1271;67761;-75
2022/07/16 13:12:16;;;;;;;5.10;1.40;;;;;;;15.33;74.55;99489.29;105274;1271;74308;-78
2022/07/16 13:15:05;;;;;;;5.20;1.20;;;;;;;15.17;73.03;99490.76;105289;1271;60446;-75
2022/07/16 13:17:53;;;;;;;6.80;1.10;;;;;;;15.11;73.27;99495.69;105562;1271;60478;-76
2022/07/16 13:20:42;;;;;;;4.10;0.80;;;;;;;15.12;73.43;99498.41;105567;1271;72833;-77
2022/07/16 13:23:30;;;;;;;3.70;0.80;;;;;;;15.13;70.97;99507.97;105577;1271;68384;-77
2022/07/16 13:26:19;;;;;;;4.90;0.90;;;;;;;15.12;70.66;99515.79;105575;1271;71724;-77